sensor_id;sensor_type;location;lat;lon;timestamp;P1;durP1;ratioP1;P2;durP2;ratioP2
42094;SDS011;27753;55.724;37.612;2022-09-09T00:00:20;4.65;;;2.15;;
42094;SDS011;27753;55.724;37.612;2022-09-09T00:05:43;3.28;;;2.10;;
42094;SDS011;27753;55.724;37.612;2022-09-09T00:08:54;2.00;;;1.60;;
42094;SDS011;27753;55.724;37.612;2022-09-09T00:14:34;2.92;;;2.35;;
42094;SDS011;27753;55.724;37.612;2022-09-09T00:17:12;3.13;;;2.03;;
42094;SDS011;27753;55.724;37.612;2022-09-09T00:22:27;6.93;;;2.78;;
42094;SDS011;27753;55.724;37.612;2022-09-09T00:24:58;4.60;;;2.40;;
42094;SDS011;27753;55.724;37.612;2022-09-09T00:27:46;2.78;;;1.90;;
42094;SDS011;27753;55.724;37.612;2022-09-09T00:30:32;2.42;;;1.80;;
42094;SDS011;27753;55.724;37.612;2022-09-09T00:33:01;3.13;;;2.15;;
42094;SDS011;27753;55.724;37.612;2022-09-09T00:35:41;4.05;;;2.40;;
42094;SDS011;27753;55.724;37.612;2022-09-09T00:38:16;2.38;;;2.10;;
42094;SDS011;27753;55.724;37.612;2022-09-09T00:40:55;3.60;;;2.45;;
42094;SDS011;27753;55.724;37.612;2022-09-09T00:43:34;3.90;;;1.98;;
42094;SDS011;27753;55.724;37.612;2022-09-09T00:48:37;4.15;;;2.72;;
42094;SDS011;27753;55.724;37.612;2022-09-09T00:51:17;3.28;;;2.28;;
42094;SDS011;27753;55.724;37.612;2022-09-09T00:57:06;5.30;;;2.95;;
42094;SDS011;27753;55.724;37.612;2022-09-09T01:02:28;5.40;;;2.42;;
42094;SDS011;27753;55.724;37.612;2022-09-09T01:05:05;5.88;;;2.20;;
42094;SDS011;27753;55.724;37.612;2022-09-09T01:07:43;3.90;;;2.22;;
42094;SDS011;27753;55.724;37.612;2022-09-09T01:13:22;5.68;;;2.72;;
42094;SDS011;27753;55.724;37.612;2022-09-09T01:15:51;3.30;;;2.53;;
42094;SDS011;27753;55.724;37.612;2022-09-09T01:18:19;5.85;;;2.60;;
42094;SDS011;27753;55.724;37.612;2022-09-09T01:20:55;4.63;;;2.47;;
42094;SDS011;27753;55.724;37.612;2022-09-09T01:28:43;4.68;;;2.58;;
42094;SDS011;27753;55.724;37.612;2022-09-09T01:31:13;4.93;;;2.35;;
42094;SDS011;27753;55.724;37.612;2022-09-09T01:33:43;5.60;;;3.50;;
42094;SDS011;27753;55.724;37.612;2022-09-09T01:36:11;4.65;;;2.50;;
42094;SDS011;27753;55.724;37.612;2022-09-09T01:38:50;6.10;;;2.97;;
42094;SDS011;27753;55.724;37.612;2022-09-09T01:41:16;4.15;;;2.30;;
42094;SDS011;27753;55.724;37.612;2022-09-09T01:43:42;3.08;;;2.20;;
42094;SDS011;27753;55.724;37.612;2022-09-09T01:46:09;5.72;;;2.45;;
42094;SDS011;27753;55.724;37.612;2022-09-09T01:48:36;4.28;;;2.08;;
42094;SDS011;27753;55.724;37.612;2022-09-09T01:51:02;3.33;;;2.38;;
42094;SDS011;27753;55.724;37.612;2022-09-09T01:53:28;4.10;;;2.58;;
42094;SDS011;27753;55.724;37.612;2022-09-09T02:02:02;4.15;;;2.22;;
42094;SDS011;27753;55.724;37.612;2022-09-09T02:10:01;5.13;;;2.63;;
42094;SDS011;27753;55.724;37.612;2022-09-09T02:12:33;3.70;;;2.67;;
42094;SDS011;27753;55.724;37.612;2022-09-09T02:15:03;3.65;;;2.60;;
42094;SDS011;27753;55.724;37.612;2022-09-09T02:17:36;5.03;;;2.90;;
42094;SDS011;27753;55.724;37.612;2022-09-09T02:20:08;3.65;;;2.58;;
42094;SDS011;27753;55.724;37.612;2022-09-09T02:22:38;4.20;;;2.47;;
42094;SDS011;27753;55.724;37.612;2022-09-09T02:25:08;4.03;;;2.47;;
42094;SDS011;27753;55.724;37.612;2022-09-09T02:27:39;3.15;;;2.40;;
42094;SDS011;27753;55.724;37.612;2022-09-09T02:30:06;4.18;;;2.67;;
42094;SDS011;27753;55.724;37.612;2022-09-09T02:32:33;3.53;;;2.37;;
42094;SDS011;27753;55.724;37.612;2022-09-09T02:35:05;2.88;;;2.00;;
42094;SDS011;27753;55.724;37.612;2022-09-09T02:37:37;4.05;;;2.67;;
42094;SDS011;27753;55.724;37.612;2022-09-09T02:40:05;4.20;;;2.58;;
42094;SDS011;27753;55.724;37.612;2022-09-09T02:42:43;5.32;;;2.33;;
42094;SDS011;27753;55.724;37.612;2022-09-09T02:45:11;4.80;;;2.42;;
42094;SDS011;27753;55.724;37.612;2022-09-09T02:47:59;2.85;;;2.40;;
42094;SDS011;27753;55.724;37.612;2022-09-09T02:50:35;4.35;;;2.97;;
42094;SDS011;27753;55.724;37.612;2022-09-09T02:53:20;3.88;;;1.80;;
42094;SDS011;27753;55.724;37.612;2022-09-09T02:55:55;2.88;;;2.28;;
42094;SDS011;27753;55.724;37.612;2022-09-09T02:58:23;2.72;;;2.28;;
42094;SDS011;27753;55.724;37.612;2022-09-09T03:00:49;5.55;;;2.80;;
42094;SDS011;27753;55.724;37.612;2022-09-09T03:03:16;3.97;;;2.50;;
42094;SDS011;27753;55.724;37.612;2022-09-09T03:05:43;5.28;;;2.47;;
42094;SDS011;27753;55.724;37.612;2022-09-09T03:08:10;4.72;;;3.65;;
42094;SDS011;27753;55.724;37.612;2022-09-09T03:10:36;3.70;;;2.40;;
42094;SDS011;27753;55.724;37.612;2022-09-09T03:13:02;5.10;;;2.67;;
42094;SDS011;27753;55.724;37.612;2022-09-09T03:15:30;4.32;;;2.60;;
42094;SDS011;27753;55.724;37.612;2022-09-09T03:17:57;4.70;;;2.60;;
42094;SDS011;27753;55.724;37.612;2022-09-09T03:20:24;5.10;;;2.83;;
42094;SDS011;27753;55.724;37.612;2022-09-09T03:22:51;4.18;;;2.92;;
42094;SDS011;27753;55.724;37.612;2022-09-09T03:25:18;4.78;;;3.17;;
42094;SDS011;27753;55.724;37.612;2022-09-09T03:27:44;6.05;;;3.50;;
42094;SDS011;27753;55.724;37.612;2022-09-09T03:30:10;4.15;;;2.90;;
42094;SDS011;27753;55.724;37.612;2022-09-09T03:32:36;7.90;;;3.15;;
42094;SDS011;27753;55.724;37.612;2022-09-09T03:35:03;6.88;;;4.53;;
42094;SDS011;27753;55.724;37.612;2022-09-09T03:37:29;4.63;;;3.30;;
42094;SDS011;27753;55.724;37.612;2022-09-09T03:39:55;8.50;;;3.75;;
42094;SDS011;27753;55.724;37.612;2022-09-09T03:42:20;7.50;;;4.45;;
42094;SDS011;27753;55.724;37.612;2022-09-09T03:44:47;4.78;;;3.00;;
42094;SDS011;27753;55.724;37.612;2022-09-09T03:47:18;6.30;;;3.38;;
42094;SDS011;27753;55.724;37.612;2022-09-09T03:49:46;6.10;;;2.80;;
42094;SDS011;27753;55.724;37.612;2022-09-09T03:52:13;5.35;;;3.05;;
42094;SDS011;27753;55.724;37.612;2022-09-09T03:54:41;8.93;;;3.28;;
42094;SDS011;27753;55.724;37.612;2022-09-09T03:57:09;3.63;;;2.53;;
42094;SDS011;27753;55.724;37.612;2022-09-09T03:59:35;9.00;;;3.78;;
42094;SDS011;27753;55.724;37.612;2022-09-09T04:02:01;6.32;;;2.90;;
42094;SDS011;27753;55.724;37.612;2022-09-09T04:04:28;4.38;;;2.67;;
42094;SDS011;27753;55.724;37.612;2022-09-09T04:06:53;3.35;;;2.20;;
42094;SDS011;27753;55.724;37.612;2022-09-09T04:09:19;6.28;;;2.90;;
42094;SDS011;27753;55.724;37.612;2022-09-09T04:11:46;3.30;;;2.63;;
42094;SDS011;27753;55.724;37.612;2022-09-09T04:14:12;4.78;;;2.83;;
42094;SDS011;27753;55.724;37.612;2022-09-09T04:16:38;4.88;;;2.90;;
42094;SDS011;27753;55.724;37.612;2022-09-09T04:19:04;4.50;;;2.80;;
42094;SDS011;27753;55.724;37.612;2022-09-09T04:21:31;4.55;;;2.95;;
42094;SDS011;27753;55.724;37.612;2022-09-09T04:23:57;4.50;;;2.60;;
42094;SDS011;27753;55.724;37.612;2022-09-09T04:26:23;4.53;;;3.25;;
42094;SDS011;27753;55.724;37.612;2022-09-09T04:28:49;4.65;;;2.53;;
42094;SDS011;27753;55.724;37.612;2022-09-09T04:31:18;3.58;;;2.55;;
42094;SDS011;27753;55.724;37.612;2022-09-09T04:33:47;3.75;;;2.60;;
42094;SDS011;27753;55.724;37.612;2022-09-09T04:36:14;3.50;;;2.20;;
42094;SDS011;27753;55.724;37.612;2022-09-09T04:38:40;4.55;;;2.58;;
42094;SDS011;27753;55.724;37.612;2022-09-09T04:41:06;5.97;;;2.80;;
42094;SDS011;27753;55.724;37.612;2022-09-09T04:43:33;6.00;;;2.75;;
42094;SDS011;27753;55.724;37.612;2022-09-09T04:45:59;4.35;;;2.55;;
42094;SDS011;27753;55.724;37.612;2022-09-09T04:48:25;6.57;;;2.53;;
42094;SDS011;27753;55.724;37.612;2022-09-09T04:50:55;4.63;;;3.13;;
42094;SDS011;27753;55.724;37.612;2022-09-09T04:53:22;4.68;;;2.22;;
42094;SDS011;27753;55.724;37.612;2022-09-09T04:56:14;5.10;;;2.58;;
42094;SDS011;27753;55.724;37.612;2022-09-09T04:58:42;6.78;;;2.67;;
42094;SDS011;27753;55.724;37.612;2022-09-09T05:03:35;4.75;;;2.38;;
42094;SDS011;27753;55.724;37.612;2022-09-09T05:06:08;3.05;;;2.38;;
42094;SDS011;27753;55.724;37.612;2022-09-09T05:08:38;5.68;;;2.50;;
42094;SDS011;27753;55.724;37.612;2022-09-09T05:11:21;6.13;;;2.92;;
42094;SDS011;27753;55.724;37.612;2022-09-09T05:13:49;5.72;;;2.30;;
42094;SDS011;27753;55.724;37.612;2022-09-09T05:16:16;2.90;;;2.20;;
42094;SDS011;27753;55.724;37.612;2022-09-09T05:18:43;5.38;;;2.38;;
42094;SDS011;27753;55.724;37.612;2022-09-09T05:21:11;7.30;;;2.40;;
42094;SDS011;27753;55.724;37.612;2022-09-09T05:23:39;3.30;;;1.92;;
42094;SDS011;27753;55.724;37.612;2022-09-09T05:26:05;3.75;;;2.47;;
42094;SDS011;27753;55.724;37.612;2022-09-09T05:28:35;4.70;;;2.40;;
42094;SDS011;27753;55.724;37.612;2022-09-09T05:31:02;4.75;;;2.05;;
42094;SDS011;27753;55.724;37.612;2022-09-09T05:33:30;5.03;;;2.15;;
42094;SDS011;27753;55.724;37.612;2022-09-09T05:36:00;7.35;;;1.88;;
42094;SDS011;27753;55.724;37.612;2022-09-09T05:38:30;4.68;;;2.20;;
42094;SDS011;27753;55.724;37.612;2022-09-09T05:43:24;5.80;;;2.07;;
42094;SDS011;27753;55.724;37.612;2022-09-09T05:46:02;2.25;;;1.70;;
42094;SDS011;27753;55.724;37.612;2022-09-09T05:48:33;3.35;;;2.03;;
42094;SDS011;27753;55.724;37.612;2022-09-09T05:51:00;4.60;;;2.33;;
42094;SDS011;27753;55.724;37.612;2022-09-09T05:53:30;7.37;;;2.23;;
42094;SDS011;27753;55.724;37.612;2022-09-09T05:56:00;3.83;;;2.05;;
42094;SDS011;27753;55.724;37.612;2022-09-09T05:58:28;3.95;;;2.15;;
42094;SDS011;27753;55.724;37.612;2022-09-09T06:01:29;6.70;;;1.93;;
42094;SDS011;27753;55.724;37.612;2022-09-09T06:03:49;4.07;;;2.00;;
42094;SDS011;27753;55.724;37.612;2022-09-09T06:06:16;3.38;;;2.38;;
42094;SDS011;27753;55.724;37.612;2022-09-09T06:08:45;4.65;;;2.10;;
42094;SDS011;27753;55.724;37.612;2022-09-09T06:11:13;3.58;;;1.85;;
42094;SDS011;27753;55.724;37.612;2022-09-09T06:13:40;4.43;;;2.15;;
42094;SDS011;27753;55.724;37.612;2022-09-09T06:16:09;8.10;;;1.85;;
42094;SDS011;27753;55.724;37.612;2022-09-09T06:18:36;7.25;;;3.95;;
42094;SDS011;27753;55.724;37.612;2022-09-09T06:21:04;5.53;;;1.52;;
42094;SDS011;27753;55.724;37.612;2022-09-09T06:23:32;3.55;;;1.85;;
42094;SDS011;27753;55.724;37.612;2022-09-09T06:26:05;5.82;;;2.00;;
42094;SDS011;27753;55.724;37.612;2022-09-09T06:28:35;4.38;;;2.10;;
42094;SDS011;27753;55.724;37.612;2022-09-09T06:31:05;6.18;;;1.88;;
42094;SDS011;27753;55.724;37.612;2022-09-09T06:33:34;5.65;;;2.42;;
42094;SDS011;27753;55.724;37.612;2022-09-09T06:36:06;6.03;;;2.50;;
42094;SDS011;27753;55.724;37.612;2022-09-09T06:38:38;3.20;;;1.67;;
42094;SDS011;27753;55.724;37.612;2022-09-09T06:41:10;4.07;;;1.60;;
42094;SDS011;27753;55.724;37.612;2022-09-09T06:43:40;4.50;;;1.70;;
42094;SDS011;27753;55.724;37.612;2022-09-09T06:48:39;4.72;;;1.73;;
42094;SDS011;27753;55.724;37.612;2022-09-09T06:51:10;1.23;;;1.08;;
42094;SDS011;27753;55.724;37.612;2022-09-09T06:53:38;5.28;;;1.67;;
42094;SDS011;27753;55.724;37.612;2022-09-09T06:59:15;3.22;;;1.52;;
42094;SDS011;27753;55.724;37.612;2022-09-09T07:01:51;3.03;;;1.95;;
42094;SDS011;27753;55.724;37.612;2022-09-09T07:04:20;2.63;;;1.70;;
42094;SDS011;27753;55.724;37.612;2022-09-09T07:06:46;2.58;;;1.55;;
42094;SDS011;27753;55.724;37.612;2022-09-09T07:09:14;5.50;;;1.85;;
42094;SDS011;27753;55.724;37.612;2022-09-09T07:11:44;5.03;;;1.55;;
42094;SDS011;27753;55.724;37.612;2022-09-09T07:14:31;3.90;;;1.45;;
42094;SDS011;27753;55.724;37.612;2022-09-09T07:17:06;6.72;;;1.38;;
42094;SDS011;27753;55.724;37.612;2022-09-09T07:19:33;4.03;;;1.60;;
42094;SDS011;27753;55.724;37.612;2022-09-09T07:22:00;3.13;;;1.23;;
42094;SDS011;27753;55.724;37.612;2022-09-09T07:24:28;8.05;;;2.53;;
42094;SDS011;27753;55.724;37.612;2022-09-09T07:26:55;2.05;;;0.70;;
42094;SDS011;27753;55.724;37.612;2022-09-09T07:29:24;3.22;;;1.40;;
42094;SDS011;27753;55.724;37.612;2022-09-09T07:31:50;3.90;;;1.13;;
42094;SDS011;27753;55.724;37.612;2022-09-09T07:34:16;2.17;;;1.33;;
42094;SDS011;27753;55.724;37.612;2022-09-09T07:36:48;8.25;;;1.52;;
42094;SDS011;27753;55.724;37.612;2022-09-09T07:39:14;4.75;;;1.63;;
42094;SDS011;27753;55.724;37.612;2022-09-09T07:41:45;3.20;;;1.10;;
42094;SDS011;27753;55.724;37.612;2022-09-09T07:44:22;3.42;;;1.23;;
42094;SDS011;27753;55.724;37.612;2022-09-09T07:47:39;2.95;;;1.65;;
42094;SDS011;27753;55.724;37.612;2022-09-09T07:50:07;1.65;;;0.95;;
42094;SDS011;27753;55.724;37.612;2022-09-09T07:52:34;1.52;;;0.75;;
42094;SDS011;27753;55.724;37.612;2022-09-09T07:55:01;2.27;;;0.70;;
42094;SDS011;27753;55.724;37.612;2022-09-09T07:57:29;3.42;;;0.70;;
42094;SDS011;27753;55.724;37.612;2022-09-09T07:59:57;2.13;;;1.00;;
42094;SDS011;27753;55.724;37.612;2022-09-09T08:02:24;4.72;;;1.40;;
42094;SDS011;27753;55.724;37.612;2022-09-09T08:04:56;1.90;;;1.60;;
42094;SDS011;27753;55.724;37.612;2022-09-09T08:07:31;2.33;;;1.40;;
42094;SDS011;27753;55.724;37.612;2022-09-09T08:09:57;2.03;;;1.40;;
42094;SDS011;27753;55.724;37.612;2022-09-09T08:12:23;3.08;;;1.27;;
42094;SDS011;27753;55.724;37.612;2022-09-09T08:14:49;1.63;;;1.27;;
42094;SDS011;27753;55.724;37.612;2022-09-09T08:17:16;2.25;;;1.40;;
42094;SDS011;27753;55.724;37.612;2022-09-09T08:19:42;2.00;;;1.30;;
42094;SDS011;27753;55.724;37.612;2022-09-09T08:22:09;3.27;;;1.27;;
42094;SDS011;27753;55.724;37.612;2022-09-09T08:24:36;2.08;;;1.42;;
42094;SDS011;27753;55.724;37.612;2022-09-09T08:27:02;2.45;;;1.50;;
42094;SDS011;27753;55.724;37.612;2022-09-09T08:29:28;7.57;;;1.85;;
42094;SDS011;27753;55.724;37.612;2022-09-09T08:31:55;2.88;;;1.50;;
42094;SDS011;27753;55.724;37.612;2022-09-09T08:34:23;3.35;;;1.60;;
42094;SDS011;27753;55.724;37.612;2022-09-09T08:36:51;4.35;;;0.93;;
42094;SDS011;27753;55.724;37.612;2022-09-09T08:39:19;2.38;;;1.45;;
42094;SDS011;27753;55.724;37.612;2022-09-09T08:47:43;3.72;;;1.25;;
42094;SDS011;27753;55.724;37.612;2022-09-09T08:50:21;3.42;;;1.20;;
42094;SDS011;27753;55.724;37.612;2022-09-09T08:52:53;3.38;;;1.30;;
42094;SDS011;27753;55.724;37.612;2022-09-09T08:55:21;3.03;;;1.00;;
42094;SDS011;27753;55.724;37.612;2022-09-09T08:57:51;3.00;;;1.10;;
42094;SDS011;27753;55.724;37.612;2022-09-09T09:00:20;2.75;;;0.93;;
42094;SDS011;27753;55.724;37.612;2022-09-09T09:03:02;7.32;;;3.33;;
42094;SDS011;27753;55.724;37.612;2022-09-09T09:08:31;4.90;;;2.05;;
42094;SDS011;27753;55.724;37.612;2022-09-09T09:11:08;1.63;;;1.13;;
42094;SDS011;27753;55.724;37.612;2022-09-09T09:16:11;3.50;;;1.30;;
42094;SDS011;27753;55.724;37.612;2022-09-09T09:18:39;2.85;;;1.30;;
42094;SDS011;27753;55.724;37.612;2022-09-09T09:21:07;3.45;;;1.33;;
42094;SDS011;27753;55.724;37.612;2022-09-09T09:23:56;1.63;;;1.08;;
42094;SDS011;27753;55.724;37.612;2022-09-09T09:26:25;2.55;;;1.60;;
42094;SDS011;27753;55.724;37.612;2022-09-09T09:28:56;4.10;;;2.05;;
42094;SDS011;27753;55.724;37.612;2022-09-09T09:31:25;1.17;;;1.08;;
42094;SDS011;27753;55.724;37.612;2022-09-09T09:33:55;2.55;;;0.90;;
42094;SDS011;27753;55.724;37.612;2022-09-09T09:36:34;5.85;;;1.65;;
42094;SDS011;27753;55.724;37.612;2022-09-09T09:39:06;3.65;;;1.65;;
42094;SDS011;27753;55.724;37.612;2022-09-09T09:41:38;8.45;;;4.15;;
42094;SDS011;27753;55.724;37.612;2022-09-09T09:44:28;2.67;;;1.58;;
42094;SDS011;27753;55.724;37.612;2022-09-09T09:47:07;2.13;;;1.27;;
42094;SDS011;27753;55.724;37.612;2022-09-09T09:49:36;1.67;;;1.17;;
42094;SDS011;27753;55.724;37.612;2022-09-09T09:52:05;1.73;;;1.10;;
42094;SDS011;27753;55.724;37.612;2022-09-09T09:57:08;2.20;;;1.00;;
42094;SDS011;27753;55.724;37.612;2022-09-09T09:59:35;3.28;;;1.17;;
42094;SDS011;27753;55.724;37.612;2022-09-09T10:04:43;1.45;;;1.10;;
42094;SDS011;27753;55.724;37.612;2022-09-09T10:07:20;2.45;;;1.25;;
42094;SDS011;27753;55.724;37.612;2022-09-09T10:23:42;5.03;;;1.27;;
42094;SDS011;27753;55.724;37.612;2022-09-09T10:31:57;4.60;;;2.10;;
42094;SDS011;27753;55.724;37.612;2022-09-09T10:37:51;5.93;;;2.70;;
42094;SDS011;27753;55.724;37.612;2022-09-09T10:40:34;2.13;;;1.40;;
42094;SDS011;27753;55.724;37.612;2022-09-09T10:46:01;7.78;;;2.67;;
42094;SDS011;27753;55.724;37.612;2022-09-09T10:52:07;2.90;;;1.67;;
42094;SDS011;27753;55.724;37.612;2022-09-09T10:56:56;2.75;;;1.55;;
42094;SDS011;27753;55.724;37.612;2022-09-09T10:59:28;1.35;;;1.25;;
42094;SDS011;27753;55.724;37.612;2022-09-09T11:02:12;4.90;;;1.58;;
42094;SDS011;27753;55.724;37.612;2022-09-09T11:04:45;2.40;;;1.35;;
42094;SDS011;27753;55.724;37.612;2022-09-09T11:13:24;2.45;;;1.48;;
42094;SDS011;27753;55.724;37.612;2022-09-09T11:18:51;3.80;;;1.60;;
42094;SDS011;27753;55.724;37.612;2022-09-09T11:21:34;6.28;;;1.30;;
42094;SDS011;27753;55.724;37.612;2022-09-09T11:26:47;1.75;;;1.10;;
42094;SDS011;27753;55.724;37.612;2022-09-09T11:38:25;2.40;;;1.40;;
42094;SDS011;27753;55.724;37.612;2022-09-09T11:40:59;3.03;;;1.45;;
42094;SDS011;27753;55.724;37.612;2022-09-09T11:43:29;2.53;;;1.38;;
42094;SDS011;27753;55.724;37.612;2022-09-09T11:46:00;8.82;;;2.88;;
42094;SDS011;27753;55.724;37.612;2022-09-09T11:48:40;8.75;;;5.30;;
42094;SDS011;27753;55.724;37.612;2022-09-09T11:53:50;3.38;;;2.90;;
42094;SDS011;27753;55.724;37.612;2022-09-09T12:01:27;5.15;;;1.60;;
42094;SDS011;27753;55.724;37.612;2022-09-09T12:06:43;4.03;;;1.73;;
42094;SDS011;27753;55.724;37.612;2022-09-09T12:09:18;2.80;;;1.90;;
42094;SDS011;27753;55.724;37.612;2022-09-09T12:11:51;2.33;;;1.23;;
42094;SDS011;27753;55.724;37.612;2022-09-09T12:16:47;3.53;;;2.10;;
42094;SDS011;27753;55.724;37.612;2022-09-09T12:19:19;2.45;;;1.35;;
42094;SDS011;27753;55.724;37.612;2022-09-09T12:21:58;3.05;;;1.60;;
42094;SDS011;27753;55.724;37.612;2022-09-09T12:24:42;3.05;;;1.63;;
42094;SDS011;27753;55.724;37.612;2022-09-09T12:27:33;3.03;;;1.73;;
42094;SDS011;27753;55.724;37.612;2022-09-09T12:30:09;3.40;;;1.60;;
42094;SDS011;27753;55.724;37.612;2022-09-09T12:32:39;3.55;;;1.70;;
42094;SDS011;27753;55.724;37.612;2022-09-09T12:35:13;4.75;;;1.83;;
42094;SDS011;27753;55.724;37.612;2022-09-09T12:38:01;5.22;;;1.80;;
42094;SDS011;27753;55.724;37.612;2022-09-09T12:40:32;4.38;;;2.10;;
42094;SDS011;27753;55.724;37.612;2022-09-09T12:43:21;3.00;;;1.42;;
42094;SDS011;27753;55.724;37.612;2022-09-09T12:45:52;3.90;;;1.90;;
42094;SDS011;27753;55.724;37.612;2022-09-09T12:48:29;5.35;;;2.75;;
42094;SDS011;27753;55.724;37.612;2022-09-09T12:51:23;2.10;;;1.52;;
42094;SDS011;27753;55.724;37.612;2022-09-09T12:53:52;2.58;;;1.45;;
42094;SDS011;27753;55.724;37.612;2022-09-09T12:56:19;2.55;;;1.48;;
42094;SDS011;27753;55.724;37.612;2022-09-09T12:58:47;3.38;;;1.90;;
42094;SDS011;27753;55.724;37.612;2022-09-09T13:01:30;2.63;;;1.77;;
42094;SDS011;27753;55.724;37.612;2022-09-09T13:03:58;5.00;;;2.60;;
42094;SDS011;27753;55.724;37.612;2022-09-09T13:06:26;1.33;;;1.23;;
42094;SDS011;27753;55.724;37.612;2022-09-09T13:08:58;3.35;;;1.33;;
42094;SDS011;27753;55.724;37.612;2022-09-09T13:11:28;4.60;;;1.92;;
42094;SDS011;27753;55.724;37.612;2022-09-09T13:14:18;1.10;;;0.73;;
42094;SDS011;27753;55.724;37.612;2022-09-09T13:16:58;1.52;;;1.00;;
42094;SDS011;27753;55.724;37.612;2022-09-09T13:19:25;3.10;;;0.90;;
42094;SDS011;27753;55.724;37.612;2022-09-09T13:21:54;2.25;;;1.13;;
42094;SDS011;27753;55.724;37.612;2022-09-09T13:24:31;1.20;;;1.00;;
42094;SDS011;27753;55.724;37.612;2022-09-09T13:27:03;3.25;;;1.30;;
42094;SDS011;27753;55.724;37.612;2022-09-09T13:29:51;2.00;;;1.00;;
42094;SDS011;27753;55.724;37.612;2022-09-09T13:32:22;1.90;;;1.35;;
42094;SDS011;27753;55.724;37.612;2022-09-09T13:34:56;2.90;;;1.08;;
42094;SDS011;27753;55.724;37.612;2022-09-09T13:37:43;2.25;;;1.35;;
42094;SDS011;27753;55.724;37.612;2022-09-09T13:40:19;3.75;;;1.38;;
42094;SDS011;27753;55.724;37.612;2022-09-09T13:42:47;2.58;;;1.20;;
42094;SDS011;27753;55.724;37.612;2022-09-09T13:45:25;2.17;;;1.17;;
42094;SDS011;27753;55.724;37.612;2022-09-09T13:47:52;2.53;;;1.23;;
42094;SDS011;27753;55.724;37.612;2022-09-09T13:50:21;2.10;;;1.73;;
42094;SDS011;27753;55.724;37.612;2022-09-09T13:52:50;3.58;;;1.30;;
42094;SDS011;27753;55.724;37.612;2022-09-09T13:55:18;1.52;;;1.17;;
42094;SDS011;27753;55.724;37.612;2022-09-09T13:57:52;2.25;;;1.08;;
42094;SDS011;27753;55.724;37.612;2022-09-09T14:00:22;3.08;;;1.20;;
42094;SDS011;27753;55.724;37.612;2022-09-09T14:03:09;1.15;;;1.00;;
42094;SDS011;27753;55.724;37.612;2022-09-09T14:05:35;4.22;;;1.42;;
42094;SDS011;27753;55.724;37.612;2022-09-09T14:08:05;2.50;;;1.55;;
42094;SDS011;27753;55.724;37.612;2022-09-09T14:10:32;3.08;;;1.17;;
42094;SDS011;27753;55.724;37.612;2022-09-09T14:13:01;3.17;;;1.90;;
42094;SDS011;27753;55.724;37.612;2022-09-09T14:15:26;7.25;;;2.00;;
42094;SDS011;27753;55.724;37.612;2022-09-09T14:17:53;4.40;;;1.83;;
42094;SDS011;27753;55.724;37.612;2022-09-09T14:20:19;4.05;;;1.80;;
42094;SDS011;27753;55.724;37.612;2022-09-09T14:22:46;2.97;;;1.40;;
42094;SDS011;27753;55.724;37.612;2022-09-09T14:25:12;2.45;;;1.20;;
42094;SDS011;27753;55.724;37.612;2022-09-09T14:27:40;2.13;;;1.10;;
42094;SDS011;27753;55.724;37.612;2022-09-09T14:30:07;3.85;;;1.17;;
42094;SDS011;27753;55.724;37.612;2022-09-09T14:32:34;1.85;;;1.20;;
42094;SDS011;27753;55.724;37.612;2022-09-09T14:35:00;1.45;;;1.10;;
42094;SDS011;27753;55.724;37.612;2022-09-09T14:37:27;2.83;;;1.25;;
42094;SDS011;27753;55.724;37.612;2022-09-09T14:39:56;2.63;;;1.15;;
42094;SDS011;27753;55.724;37.612;2022-09-09T14:42:22;2.28;;;1.50;;
42094;SDS011;27753;55.724;37.612;2022-09-09T14:44:48;2.65;;;1.63;;
42094;SDS011;27753;55.724;37.612;2022-09-09T14:47:14;4.13;;;1.95;;
42094;SDS011;27753;55.724;37.612;2022-09-09T14:49:40;1.92;;;1.15;;
42094;SDS011;27753;55.724;37.612;2022-09-09T14:52:06;3.10;;;1.17;;
42094;SDS011;27753;55.724;37.612;2022-09-09T14:54:33;4.15;;;2.03;;
42094;SDS011;27753;55.724;37.612;2022-09-09T14:57:01;4.55;;;2.10;;
42094;SDS011;27753;55.724;37.612;2022-09-09T14:59:28;6.38;;;2.50;;
42094;SDS011;27753;55.724;37.612;2022-09-09T15:01:54;4.50;;;3.13;;
42094;SDS011;27753;55.724;37.612;2022-09-09T15:04:20;4.80;;;2.33;;
42094;SDS011;27753;55.724;37.612;2022-09-09T15:06:46;3.90;;;1.92;;
42094;SDS011;27753;55.724;37.612;2022-09-09T15:09:13;3.67;;;1.70;;
42094;SDS011;27753;55.724;37.612;2022-09-09T15:11:40;2.28;;;1.58;;
42094;SDS011;27753;55.724;37.612;2022-09-09T15:14:07;4.60;;;1.55;;
42094;SDS011;27753;55.724;37.612;2022-09-09T15:16:34;2.90;;;1.25;;
42094;SDS011;27753;55.724;37.612;2022-09-09T15:19:01;3.40;;;1.70;;
42094;SDS011;27753;55.724;37.612;2022-09-09T15:21:28;4.05;;;2.47;;
42094;SDS011;27753;55.724;37.612;2022-09-09T15:23:56;3.53;;;1.92;;
42094;SDS011;27753;55.724;37.612;2022-09-09T15:26:22;4.05;;;1.58;;
42094;SDS011;27753;55.724;37.612;2022-09-09T15:28:49;2.35;;;1.65;;
42094;SDS011;27753;55.724;37.612;2022-09-09T15:36:16;2.75;;;1.92;;
42094;SDS011;27753;55.724;37.612;2022-09-09T15:38:44;5.65;;;2.00;;
42094;SDS011;27753;55.724;37.612;2022-09-09T15:41:11;4.20;;;2.15;;
42094;SDS011;27753;55.724;37.612;2022-09-09T15:43:38;6.38;;;2.47;;
42094;SDS011;27753;55.724;37.612;2022-09-09T15:46:42;3.47;;;1.60;;
42094;SDS011;27753;55.724;37.612;2022-09-09T15:51:29;3.42;;;1.92;;
42094;SDS011;27753;55.724;37.612;2022-09-09T15:53:56;4.00;;;1.85;;
42094;SDS011;27753;55.724;37.612;2022-09-09T15:56:24;2.72;;;1.85;;
42094;SDS011;27753;55.724;37.612;2022-09-09T15:58:52;3.33;;;1.90;;
42094;SDS011;27753;55.724;37.612;2022-09-09T16:03:46;4.53;;;2.05;;
42094;SDS011;27753;55.724;37.612;2022-09-09T16:06:16;4.90;;;2.45;;
42094;SDS011;27753;55.724;37.612;2022-09-09T16:08:44;3.38;;;2.03;;
42094;SDS011;27753;55.724;37.612;2022-09-09T16:11:23;5.97;;;2.67;;
42094;SDS011;27753;55.724;37.612;2022-09-09T16:13:51;3.55;;;2.28;;
42094;SDS011;27753;55.724;37.612;2022-09-09T16:16:21;6.43;;;2.42;;
42094;SDS011;27753;55.724;37.612;2022-09-09T16:18:50;5.10;;;2.67;;
42094;SDS011;27753;55.724;37.612;2022-09-09T16:21:22;3.97;;;2.40;;
42094;SDS011;27753;55.724;37.612;2022-09-09T16:23:49;5.50;;;2.45;;
42094;SDS011;27753;55.724;37.612;2022-09-09T16:26:18;3.97;;;2.67;;
42094;SDS011;27753;55.724;37.612;2022-09-09T16:28:45;8.10;;;3.13;;
42094;SDS011;27753;55.724;37.612;2022-09-09T16:31:22;5.90;;;2.88;;
42094;SDS011;27753;55.724;37.612;2022-09-09T16:33:49;5.15;;;2.97;;
42094;SDS011;27753;55.724;37.612;2022-09-09T16:36:20;7.67;;;2.87;;
42094;SDS011;27753;55.724;37.612;2022-09-09T16:38:57;4.68;;;2.83;;
42094;SDS011;27753;55.724;37.612;2022-09-09T16:41:25;6.47;;;3.58;;
42094;SDS011;27753;55.724;37.612;2022-09-09T16:43:56;5.97;;;3.65;;
42094;SDS011;27753;55.724;37.612;2022-09-09T16:46:24;4.53;;;3.10;;
42094;SDS011;27753;55.724;37.612;2022-09-09T16:48:52;6.78;;;3.60;;
42094;SDS011;27753;55.724;37.612;2022-09-09T16:51:21;6.97;;;3.95;;
42094;SDS011;27753;55.724;37.612;2022-09-09T16:53:49;7.70;;;3.67;;
42094;SDS011;27753;55.724;37.612;2022-09-09T16:56:16;8.55;;;3.80;;
42094;SDS011;27753;55.724;37.612;2022-09-09T16:58:48;8.73;;;4.13;;
42094;SDS011;27753;55.724;37.612;2022-09-09T17:01:15;13.60;;;4.88;;
42094;SDS011;27753;55.724;37.612;2022-09-09T17:03:41;9.20;;;4.45;;
42094;SDS011;27753;55.724;37.612;2022-09-09T17:06:11;8.32;;;4.10;;
42094;SDS011;27753;55.724;37.612;2022-09-09T17:08:39;8.80;;;4.47;;
42094;SDS011;27753;55.724;37.612;2022-09-09T17:11:16;8.82;;;4.43;;
42094;SDS011;27753;55.724;37.612;2022-09-09T17:13:44;12.18;;;5.53;;